Pagrindinis puslapis
METAR-TAF:

METAR-TAF

Oro uostai :

Bostonas, Masačusetsas, Jungtinės Amerikos Valstijos

platuma: 42-21-38N, ilguma: 071-00-38W, Aukštis: 6 m

Dabartinis oras

Ataskaita buvo paskelbta 30 minutes, ne 06:54 UTC
Vėjas 13 kt iš Vakarų/Pietvakarių
Temperatūra 1°C
Drėgmė 34%
Slėgis 1005 hPa
Matomumas: 16.1 km
Su prošvaistėmis ne aukštis 7000 ft

METAR: KBOS 280654Z 24013KT 10SM BKN070 01/M13 A2968 RMK AO2 PK WND 25028/0557 SLP049 T00061128

Laikas: 02:24 (07:24 UTC)

Prognozė

Ataskaita buvo paskelbta 2 valandos ir 0 minutes, ne 05:24 UTC
Prognozė galioja nuo 28 metu 06 UTC su 29 metu 12 UTC
Vėjas 18 kt iš Vakarų/Pietvakarių su gūsio iki 30 kt
Matomumas: 10 km
Išsisklaidę debesys ne aukštis 5000 ft
Nuo 29 metu 0000 UTC
Vėjas 13 kt iš Vakarų/Pietvakarių
Matomumas: 10 km
Išsisklaidę debesys ne aukštis 6000 ft
Nuo 29 metu 0400 UTC
Vėjas 8 kt iš Vakarų/Pietvakarių
Matomumas: 10 km
Mažai debesys ne aukštis 25000 ft

TAF: KBOS 280524Z 2806/2912 25018G30KT P6SM SCT050 FM290000 25013KT P6SM SCT060 FM290400 25008KT P6SM FEW250

Orai ataskaitas ir orų prognozės (METAR, TAF).

turimą stotys yra geltonos ir raudonos taškus žemėlapyje.

Perkelti pele per norėdami pamatyti stoties vardą.

Tada spustelėkite, norėdami matyti oro stebėjimo ir prognozės.

Norėdami pakeisti žemėlapį: spustelėkite ant žalios mygtukų su juodo kryžiaus žemyn,; žalią mygtuką su brūkšneliu, jei norite nutolinti; arba žalių rodyklių gretimoms žemėlapius.


METAR-TAF: